Strona główna
METAR-TAF:

METAR-TAF

Lotnisko :

Port lotniczy Gran Canaria

Gran Canaria, Hiszpania

Szerokość geograficzna: 27-56N, Długość geograficzna: 015-23W, wysokość: 23 m

Aktualna obserwacja pogody

Raport powstał 23 minut temu, godzina 11:00 UTC
Wiatr 18 kt od północny wschód
Temperatura 24°C
Wilgotność 69%
Ciśnienie 1020 hPa
Widzialność 10 km lub więcej
Mało chmury na wysokości 2500 ft

METAR: GCLP 191100Z 04018KT 9999 FEW025 24/18 Q1020 NOSIG

czas: 12:23 (11:23 UTC)

Prognoza

Raport powstał 3 godziny i 23 minut temu, godzina 08:00 UTC
Prognoza ważna od 19 godzina 09 UTC do 20 godzina 09 UTC
Wiatr 17 kt od północno-północny wschód
Widzialność 10 km lub więcej
Rozproszone chmury na wysokości 3500 ft
Stopniowe zmiany
od 19 godzina 20 UTC do 19 godzina 22 UTC
Wiatr 7 kt od północ

TAF: GCLP 190800Z 1909/2009 03017KT 9999 SCT035 TX25/1914Z TN20/2006Z BECMG 1920/1922 35007KT

Obserwacja i prognoza pogody dla ponad 4000 lotnisk (raport METAR i TAF).

Dostępne stacje oznaczono żółtymi i czerwonymi punktami na mapie.

Najedź kursorem aby zobaczyć nazwę stacji.

Kliknij aby zobaczyć obserwacje i prognozy pogody.

Aby zmienić mapę: kliknij na zielony przycisk z czarnym krzyżykiem, aby powiększyć; na zielony przycisk z myślnikiem, aby pomniejszyć; na zielone strzałki, aby przejść do map sąsiednich.


METAR-TAF: